Time;durP1;ratioP1;P1;durP2;ratioP2;P2;SDS_P1;SDS_P2;PMS_P1;PMS_P2;Temp;Humidity;BMP_temperature;BMP_pressure;BME280_temperature;BME280_humidity;BME280_pressure;Samples;Min_cycle;Max_cycle;Signal;HPM_P1;HPM_P2
2022/05/04 00:00:48;;;;;;;18.58;7.90;;;;;;;;;;5032583;28;20029;-70
2022/05/04 00:03:14;;;;;;;26.90;8.05;;;;;;;;;;5036348;28;20140;-70
2022/05/04 00:05:40;;;;;;;26.55;9.10;;;;;;;;;;5031876;28;20120;-70
2022/05/04 00:08:05;;;;;;;18.42;8.35;;;;;;;;;;5037198;28;20569;-70
2022/05/04 00:10:31;;;;;;;19.13;8.55;;;;;;;;;;5034460;28;20063;-70
2022/05/04 00:12:58;;;;;;;21.40;7.85;;;;;;;;;;5037666;28;20090;-70
2022/05/04 00:15:24;;;;;;;19.13;7.97;;;;;;;;;;5043607;28;20021;-70
2022/05/04 00:17:49;;;;;;;19.80;7.82;;;;;;;;;;5048057;28;20750;-70
2022/05/04 00:20:14;;;;;;;22.42;7.68;;;;;;;;;;5036805;28;20121;-70
2022/05/04 00:22:40;;;;;;;20.73;7.75;;;;;;;;;;5034581;28;20041;-70
2022/05/04 00:25:06;;;;;;;22.70;8.30;;;;;;;;;;5044032;28;20029;-70
2022/05/04 00:27:31;;;;;;;20.02;8.07;;;;;;;;;;5032902;28;20025;-70
2022/05/04 00:29:57;;;;;;;16.83;7.78;;;;;;;;;;5034413;28;20497;-70
2022/05/04 00:32:22;;;;;;;24.25;8.35;;;;;;;;;;5033467;28;20426;-70
2022/05/04 00:34:48;;;;;;;20.02;7.95;;;;;;;;;;5036224;28;20032;-70
2022/05/04 00:37:13;;;;;;;20.42;7.93;;;;;;;;;;5030575;28;20029;-70
2022/05/04 00:39:39;;;;;;;20.00;8.07;;;;;;;;;;5037862;28;20057;-70
2022/05/04 00:42:15;;;;;;;21.60;9.00;;;;;;;;;;5044225;28;20048;-70
2022/05/04 00:44:42;;;;;;;21.13;8.02;;;;;;;;;;5029774;28;20530;-70
2022/05/04 00:47:09;;;;;;;22.13;8.55;;;;;;;;;;5028833;28;20033;-70
2022/05/04 00:49:35;;;;;;;24.70;8.38;;;;;;;;;;5040752;28;20029;-70
2022/05/04 00:52:02;;;;;;;16.92;7.72;;;;;;;;;;5034663;28;20136;-70
2022/05/04 00:54:28;;;;;;;20.92;8.48;;;;;;;;;;5040386;28;20495;-70
2022/05/04 00:56:54;;;;;;;17.58;7.65;;;;;;;;;;5049383;28;20048;-70
2022/05/04 00:59:21;;;;;;;24.13;8.18;;;;;;;;;;5043506;28;20048;-70
2022/05/04 01:01:47;;;;;;;20.85;8.10;;;;;;;;;;5048428;28;20037;-70
2022/05/04 01:04:12;;;;;;;18.55;7.93;;;;;;;;;;5046936;28;20174;-70
2022/05/04 01:06:37;;;;;;;23.05;8.40;;;;;;;;;;5045034;28;20056;-70
2022/05/04 01:09:04;;;;;;;21.48;8.27;;;;;;;;;;5037588;28;20063;-70
2022/05/04 01:11:29;;;;;;;22.58;8.55;;;;;;;;;;5037356;28;20033;-70
2022/05/04 01:14:06;;;;;;;19.70;8.82;;;;;;;;;;5028055;28;20029;-70
2022/05/04 01:16:33;;;;;;;21.52;8.05;;;;;;;;;;5026774;28;20122;-70
2022/05/04 01:18:59;;;;;;;24.30;9.23;;;;;;;;;;5027979;28;20575;-70
2022/05/04 01:21:25;;;;;;;21.23;8.77;;;;;;;;;;5041816;28;20024;-69
2022/05/04 01:23:53;;;;;;;18.17;8.07;;;;;;;;;;5029960;28;20030;-70
2022/05/04 01:26:18;;;;;;;22.58;8.63;;;;;;;;;;5027707;28;20415;-70
2022/05/04 01:28:44;;;;;;;21.92;8.18;;;;;;;;;;5033844;28;20029;-70
2022/05/04 01:31:10;;;;;;;21.67;8.52;;;;;;;;;;5041046;28;20033;-70
2022/05/04 01:33:35;;;;;;;18.67;8.63;;;;;;;;;;5031024;28;20034;-70
2022/05/04 01:36:01;;;;;;;17.58;7.78;;;;;;;;;;5037719;28;20452;-70
2022/05/04 01:38:26;;;;;;;21.85;8.60;;;;;;;;;;5038675;28;20917;-70
2022/05/04 01:40:52;;;;;;;24.20;9.13;;;;;;;;;;5030353;28;20049;-70
2022/05/04 01:43:17;;;;;;;24.33;8.18;;;;;;;;;;5045448;28;20629;-70
2022/05/04 01:45:42;;;;;;;21.67;9.27;;;;;;;;;;5042930;28;20028;-70
2022/05/04 01:48:08;;;;;;;20.33;8.60;;;;;;;;;;5048406;28;20025;-70
2022/05/04 01:50:33;;;;;;;21.40;8.75;;;;;;;;;;5040183;28;20029;-70
2022/05/04 01:52:58;;;;;;;24.40;8.63;;;;;;;;;;5041581;28;20120;-70
2022/05/04 01:55:25;;;;;;;19.92;8.85;;;;;;;;;;5039731;28;20037;-70
2022/05/04 01:57:50;;;;;;;22.15;7.78;;;;;;;;;;5044158;28;20211;-70
2022/05/04 02:00:16;;;;;;;25.00;8.82;;;;;;;;;;5045704;28;20111;-70
2022/05/04 02:02:42;;;;;;;18.10;8.10;;;;;;;;;;5031877;28;20029;-70
2022/05/04 02:05:08;;;;;;;25.45;8.45;;;;;;;;;;5029934;28;20519;-70
2022/05/04 02:07:35;;;;;;;19.83;8.10;;;;;;;;;;5027294;28;20133;-70
2022/05/04 02:10:01;;;;;;;22.50;9.20;;;;;;;;;;5037644;28;20666;-70
2022/05/04 02:12:27;;;;;;;18.70;8.25;;;;;;;;;;5029610;28;20087;-70
2022/05/04 02:14:53;;;;;;;21.63;8.68;;;;;;;;;;5033030;28;20136;-70
2022/05/04 02:17:18;;;;;;;21.02;8.70;;;;;;;;;;5027518;28;20124;-70
2022/05/04 02:19:44;;;;;;;21.13;9.45;;;;;;;;;;5029024;28;20072;-70
2022/05/04 02:22:09;;;;;;;19.38;8.93;;;;;;;;;;5027584;28;20486;-70
2022/05/04 02:24:34;;;;;;;23.58;8.63;;;;;;;;;;5027519;28;20033;-70
2022/05/04 02:27:00;;;;;;;19.38;8.07;;;;;;;;;;5045639;28;20078;-70
2022/05/04 02:29:25;;;;;;;27.23;9.27;;;;;;;;;;5046321;28;20049;-70
2022/05/04 02:31:50;;;;;;;23.80;8.38;;;;;;;;;;5039771;28;20103;-70
2022/05/04 02:34:16;;;;;;;20.58;8.55;;;;;;;;;;5029111;28;20041;-70
2022/05/04 02:39:25;;;;;;;23.92;9.07;;;;;;;;;;5027769;28;20108;-70
2022/05/04 02:41:52;;;;;;;20.30;8.40;;;;;;;;;;5036458;28;20017;-70
2022/05/04 02:44:17;;;;;;;23.27;8.77;;;;;;;;;;5045082;28;20037;-70
2022/05/04 02:46:43;;;;;;;20.63;8.90;;;;;;;;;;5042685;28;20048;-70
2022/05/04 02:49:08;;;;;;;19.88;7.97;;;;;;;;;;5040662;28;20044;-70
2022/05/04 02:51:33;;;;;;;23.45;9.40;;;;;;;;;;5025575;28;20044;-70
2022/05/04 02:53:59;;;;;;;16.85;7.97;;;;;;;;;;5037056;28;20451;-70
2022/05/04 02:56:24;;;;;;;26.13;9.43;;;;;;;;;;5028945;28;20033;-70
2022/05/04 02:58:53;;;;;;;21.77;9.00;;;;;;;;;;5035966;28;20083;-70
2022/05/04 03:04:08;;;;;;;18.67;8.30;;;;;;;;;;5038092;28;20076;-70
2022/05/04 03:06:41;;;;;;;21.42;8.82;;;;;;;;;;5036195;28;20419;-70
2022/05/04 03:09:10;;;;;;;21.00;9.18;;;;;;;;;;5041107;28;20021;-70
2022/05/04 03:11:54;;;;;;;22.73;7.97;;;;;;;;;;5034359;28;20473;-70
2022/05/04 03:14:20;;;;;;;19.65;8.57;;;;;;;;;;5034459;28;20569;-70
2022/05/04 03:16:50;;;;;;;21.77;8.18;;;;;;;;;;5034532;28;20061;-70
2022/05/04 03:19:16;;;;;;;19.60;8.57;;;;;;;;;;5030640;28;20037;-70
2022/05/04 03:21:41;;;;;;;18.75;8.45;;;;;;;;;;5047348;28;20462;-70
2022/05/04 03:24:07;;;;;;;19.80;7.78;;;;;;;;;;5037131;28;20029;-70
2022/05/04 03:26:33;;;;;;;21.73;8.82;;;;;;;;;;5042131;28;20037;-70
2022/05/04 03:28:58;;;;;;;21.67;8.95;;;;;;;;;;5037554;28;20644;-70
2022/05/04 03:31:23;;;;;;;21.77;8.52;;;;;;;;;;5034414;28;20086;-70
2022/05/04 03:33:49;;;;;;;21.83;8.57;;;;;;;;;;5028691;28;20116;-70
2022/05/04 03:36:14;;;;;;;29.30;8.85;;;;;;;;;;5040716;28;20032;-70
2022/05/04 03:38:40;;;;;;;19.65;8.25;;;;;;;;;;5044169;28;20187;-69
2022/05/04 03:41:05;;;;;;;20.55;8.05;;;;;;;;;;5033365;28;20040;-70
2022/05/04 03:43:31;;;;;;;19.15;8.20;;;;;;;;;;5046473;28;20130;-70
2022/05/04 03:46:17;;;;;;;21.67;8.63;;;;;;;;;;5030211;28;20052;-70
2022/05/04 03:48:44;;;;;;;24.88;7.97;;;;;;;;;;5037210;28;20045;-70
2022/05/04 03:51:10;;;;;;;19.77;8.02;;;;;;;;;;5033850;28;20021;-70
2022/05/04 03:53:36;;;;;;;23.88;9.50;;;;;;;;;;5038707;28;20036;-70
2022/05/04 03:56:01;;;;;;;19.67;7.95;;;;;;;;;;5030874;28;20060;-70
2022/05/04 03:58:27;;;;;;;20.63;8.43;;;;;;;;;;5041086;28;20060;-70
2022/05/04 04:00:52;;;;;;;21.35;8.63;;;;;;;;;;5033402;28;20045;-70
2022/05/04 04:03:18;;;;;;;20.58;8.90;;;;;;;;;;5036203;28;20037;-70
2022/05/04 04:05:44;;;;;;;21.48;8.50;;;;;;;;;;5031381;28;20435;-70
2022/05/04 04:08:09;;;;;;;20.95;8.57;;;;;;;;;;5038022;28;20042;-70
2022/05/04 04:10:34;;;;;;;19.17;7.82;;;;;;;;;;5032532;28;20041;-69
2022/05/04 04:13:00;;;;;;;18.23;7.90;;;;;;;;;;5035750;28;20037;-70
2022/05/04 04:15:25;;;;;;;20.77;9.07;;;;;;;;;;5029306;28;20022;-70
2022/05/04 04:17:50;;;;;;;22.10;8.45;;;;;;;;;;5037893;28;20083;-69
2022/05/04 04:23:01;;;;;;;20.02;7.80;;;;;;;;;;5037596;28;20060;-69
2022/05/04 04:25:26;;;;;;;19.70;8.63;;;;;;;;;;5037148;28;20470;-69
2022/05/04 04:27:51;;;;;;;17.90;8.45;;;;;;;;;;5043878;28;20060;-70
2022/05/04 04:30:17;;;;;;;19.33;8.38;;;;;;;;;;5046471;28;20524;-70
2022/05/04 04:32:42;;;;;;;18.73;9.38;;;;;;;;;;5038303;28;20515;-70
2022/05/04 04:35:08;;;;;;;18.25;8.40;;;;;;;;;;5029140;28;20037;-70
2022/05/04 04:37:33;;;;;;;18.88;7.85;;;;;;;;;;5035333;28;20082;-70
2022/05/04 04:39:59;;;;;;;20.38;7.70;;;;;;;;;;5038195;28;20450;-70
2022/05/04 04:42:24;;;;;;;20.92;8.02;;;;;;;;;;5042356;28;20063;-69
2022/05/04 04:44:49;;;;;;;17.98;7.55;;;;;;;;;;5039060;28;20449;-70
2022/05/04 04:47:15;;;;;;;24.02;8.02;;;;;;;;;;5030964;28;20530;-69
2022/05/04 04:49:40;;;;;;;17.25;7.47;;;;;;;;;;5040854;28;20044;-70
2022/05/04 04:52:06;;;;;;;20.55;8.20;;;;;;;;;;5042851;28;20641;-70
2022/05/04 04:54:31;;;;;;;22.85;8.82;;;;;;;;;;5029662;28;20388;-70
2022/05/04 04:56:56;;;;;;;18.50;8.55;;;;;;;;;;5031722;28;20051;-69
2022/05/04 04:59:21;;;;;;;21.48;8.90;;;;;;;;;;5037930;28;20050;-70
2022/05/04 05:01:47;;;;;;;25.52;8.98;;;;;;;;;;5032994;28;20430;-70
2022/05/04 05:04:12;;;;;;;20.88;9.43;;;;;;;;;;5037941;28;20537;-70
2022/05/04 05:06:37;;;;;;;22.13;9.48;;;;;;;;;;5028476;28;20105;-70
2022/05/04 05:09:03;;;;;;;24.23;8.52;;;;;;;;;;5037938;28;20024;-70
2022/05/04 05:11:28;;;;;;;21.88;9.10;;;;;;;;;;5028146;28;20045;-70
2022/05/04 05:16:38;;;;;;;17.38;7.90;;;;;;;;;;5038953;28;20148;-70
2022/05/04 05:19:03;;;;;;;19.77;9.32;;;;;;;;;;5031228;28;20119;-70
2022/05/04 05:21:29;;;;;;;22.85;9.32;;;;;;;;;;5040363;28;20056;-70
2022/05/04 05:23:54;;;;;;;21.15;9.02;;;;;;;;;;5026195;28;20032;-70
2022/05/04 05:26:19;;;;;;;21.95;9.10;;;;;;;;;;5028084;28;20080;-70
2022/05/04 05:28:45;;;;;;;24.40;9.68;;;;;;;;;;5031293;28;20041;-70
2022/05/04 05:31:10;;;;;;;24.75;9.18;;;;;;;;;;5039815;28;20083;-70
2022/05/04 05:33:35;;;;;;;21.95;8.93;;;;;;;;;;5028663;28;20555;-70
2022/05/04 05:36:01;;;;;;;18.92;8.63;;;;;;;;;;5032192;28;20037;-70
2022/05/04 05:38:27;;;;;;;22.02;9.35;;;;;;;;;;5041310;28;20083;-70
2022/05/04 05:40:52;;;;;;;29.15;10.18;;;;;;;;;;5041122;28;20052;-70
2022/05/04 05:43:18;;;;;;;27.23;11.02;;;;;;;;;;5047571;28;20036;-70
2022/05/04 05:45:43;;;;;;;27.75;10.00;;;;;;;;;;5034257;28;20042;-70
2022/05/04 05:48:08;;;;;;;26.88;10.40;;;;;;;;;;5040382;28;20043;-70
2022/05/04 05:50:34;;;;;;;22.85;9.95;;;;;;;;;;5041020;28;20037;-70
2022/05/04 05:53:00;;;;;;;24.17;9.82;;;;;;;;;;5031648;28;20067;-70
2022/05/04 05:55:25;;;;;;;28.65;10.85;;;;;;;;;;5045299;28;20037;-70
2022/05/04 05:57:50;;;;;;;26.33;10.85;;;;;;;;;;5039446;28;20045;-70
2022/05/04 06:00:16;;;;;;;27.50;11.23;;;;;;;;;;5042783;28;20747;-68
2022/05/04 06:02:41;;;;;;;25.48;10.80;;;;;;;;;;5033169;28;20029;-68
2022/05/04 06:05:07;;;;;;;27.30;10.73;;;;;;;;;;5045218;28;20041;-67
2022/05/04 06:07:32;;;;;;;27.45;11.70;;;;;;;;;;5043255;28;20053;-68
2022/05/04 06:09:58;;;;;;;26.05;10.90;;;;;;;;;;5041608;28;20040;-68
2022/05/04 06:12:23;;;;;;;31.98;10.50;;;;;;;;;;5033033;28;20479;-68
2022/05/04 06:14:48;;;;;;;29.15;11.00;;;;;;;;;;5035448;28;20442;-67
2022/05/04 06:17:14;;;;;;;33.25;12.25;;;;;;;;;;5040305;28;20453;-67
2022/05/04 06:19:39;;;;;;;32.25;12.02;;;;;;;;;;5033451;28;20041;-69
2022/05/04 06:22:05;;;;;;;28.50;11.63;;;;;;;;;;5029354;28;20049;-70
2022/05/04 06:24:30;;;;;;;26.42;11.18;;;;;;;;;;5031348;28;20027;-71
2022/05/04 06:26:55;;;;;;;31.63;12.10;;;;;;;;;;5033097;28;20544;-71
2022/05/04 06:29:21;;;;;;;32.30;12.85;;;;;;;;;;5036392;28;20041;-70
2022/05/04 06:34:32;;;;;;;31.42;11.50;;;;;;;;;;5032626;28;20103;-72
2022/05/04 06:36:57;;;;;;;25.98;11.38;;;;;;;;;;5048192;28;20041;-71
2022/05/04 06:39:22;;;;;;;38.90;13.52;;;;;;;;;;5042480;28;20037;-72
2022/05/04 06:41:49;;;;;;;28.73;12.52;;;;;;;;;;5037881;28;20029;-70
2022/05/04 06:44:14;;;;;;;31.45;11.68;;;;;;;;;;5039052;28;20033;-70
2022/05/04 06:46:41;;;;;;;38.55;12.40;;;;;;;;;;5032978;28;20056;-69
2022/05/04 06:49:08;;;;;;;31.23;12.75;;;;;;;;;;5032403;28;20041;-71
2022/05/04 06:51:35;;;;;;;38.25;12.98;;;;;;;;;;5034100;28;20040;-70
2022/05/04 06:54:00;;;;;;;38.92;12.63;;;;;;;;;;5035099;28;20033;-70
2022/05/04 06:56:25;;;;;;;25.02;11.95;;;;;;;;;;5032096;28;20035;-70
2022/05/04 06:58:51;;;;;;;32.97;13.85;;;;;;;;;;5033391;28;20060;-69
2022/05/04 07:01:16;;;;;;;34.00;13.32;;;;;;;;;;5039328;28;20077;-70
2022/05/04 07:03:41;;;;;;;30.02;12.88;;;;;;;;;;5039535;28;20414;-69
2022/05/04 07:06:07;;;;;;;25.92;11.57;;;;;;;;;;5043450;28;20035;-69
2022/05/04 07:08:33;;;;;;;32.65;12.20;;;;;;;;;;5034947;28;20084;-70
2022/05/04 07:10:59;;;;;;;29.20;12.02;;;;;;;;;;5038859;28;20044;-69
2022/05/04 07:13:24;;;;;;;25.75;11.38;;;;;;;;;;5036012;28;20040;-70
2022/05/04 07:15:49;;;;;;;28.23;11.57;;;;;;;;;;5040541;28;20554;-69
2022/05/04 07:18:15;;;;;;;28.95;11.95;;;;;;;;;;5039333;28;20673;-68
2022/05/04 07:20:40;;;;;;;23.77;9.52;;;;;;;;;;5040037;28;20040;-70
2022/05/04 07:23:06;;;;;;;24.42;10.45;;;;;;;;;;5034332;28;20561;-70
2022/05/04 07:25:31;;;;;;;32.75;12.55;;;;;;;;;;5030611;28;20606;-72
2022/05/04 07:27:57;;;;;;;25.70;10.43;;;;;;;;;;5037363;28;20053;-71
2022/05/04 07:30:22;;;;;;;23.35;10.43;;;;;;;;;;5037466;28;20065;-73
2022/05/04 07:32:47;;;;;;;27.75;11.20;;;;;;;;;;5038520;28;20029;-71
2022/05/04 07:35:13;;;;;;;29.58;11.00;;;;;;;;;;5033838;28;20069;-71
2022/05/04 07:37:41;;;;;;;28.75;10.07;;;;;;;;;;5032400;28;20064;-70
2022/05/04 07:42:51;;;;;;;24.98;10.63;;;;;;;;;;5037213;28;20052;-71
2022/05/04 07:45:17;;;;;;;30.50;10.82;;;;;;;;;;5037865;28;20464;-71
2022/05/04 07:47:42;;;;;;;25.30;11.10;;;;;;;;;;5039268;28;20036;-70
2022/05/04 07:50:09;;;;;;;26.67;11.10;;;;;;;;;;5031718;28;20044;-71
2022/05/04 07:52:35;;;;;;;33.75;12.35;;;;;;;;;;5033179;28;20033;-71
2022/05/04 07:55:02;;;;;;;30.00;11.35;;;;;;;;;;5037399;28;20099;-71
2022/05/04 07:57:27;;;;;;;28.67;11.43;;;;;;;;;;5039177;28;20029;-71
2022/05/04 08:05:22;;;;;;;34.55;12.70;;;;;;;;;;5042442;28;21288;-71
2022/05/04 08:07:48;;;;;;;34.20;12.95;;;;;;;;;;5031695;28;20053;-71
2022/05/04 08:10:13;;;;;;;45.70;14.43;;;;;;;;;;5029046;28;20072;-71
2022/05/04 08:12:39;;;;;;;30.70;12.48;;;;;;;;;;5027732;28;20076;-71
2022/05/04 08:15:05;;;;;;;37.38;12.60;;;;;;;;;;5039165;28;20599;-70
2022/05/04 08:17:30;;;;;;;35.78;13.23;;;;;;;;;;5046172;28;20052;-71
2022/05/04 08:19:55;;;;;;;42.90;13.93;;;;;;;;;;5034118;28;20038;-71
2022/05/04 08:22:21;;;;;;;36.42;13.27;;;;;;;;;;5041705;28;20045;-70
2022/05/04 08:24:46;;;;;;;32.95;12.80;;;;;;;;;;5038362;28;20037;-70
2022/05/04 08:27:12;;;;;;;49.63;15.05;;;;;;;;;;5032163;28;20037;-71
2022/05/04 08:29:37;;;;;;;37.00;12.52;;;;;;;;;;5037057;28;20033;-69
2022/05/04 08:32:03;;;;;;;38.28;15.07;;;;;;;;;;5034147;28;20135;-70
2022/05/04 08:34:28;;;;;;;29.77;13.23;;;;;;;;;;5038705;28;20049;-69
2022/05/04 08:36:53;;;;;;;36.92;13.73;;;;;;;;;;5042691;28;20091;-66
2022/05/04 08:39:19;;;;;;;31.40;12.40;;;;;;;;;;5035673;28;20033;-66
2022/05/04 08:41:44;;;;;;;31.48;13.00;;;;;;;;;;5036738;28;20097;-66
2022/05/04 08:44:11;;;;;;;34.78;13.55;;;;;;;;;;5031716;28;21538;-65
2022/05/04 08:46:39;;;;;;;31.05;12.90;;;;;;;;;;5029833;28;20480;-65
2022/05/04 08:49:05;;;;;;;29.08;10.98;;;;;;;;;;5036647;28;20103;-65
2022/05/04 08:51:32;;;;;;;34.33;12.90;;;;;;;;;;5036799;28;20419;-65
2022/05/04 08:53:57;;;;;;;33.40;13.23;;;;;;;;;;5036362;28;20066;-64
2022/05/04 08:56:23;;;;;;;32.50;12.85;;;;;;;;;;5030745;28;20045;-64
2022/05/04 08:58:48;;;;;;;34.70;11.82;;;;;;;;;;5041164;28;20422;-65
2022/05/04 09:01:14;;;;;;;29.75;10.95;;;;;;;;;;5038950;28;20169;-65
2022/05/04 09:03:39;;;;;;;29.98;11.15;;;;;;;;;;5035944;28;20041;-65
2022/05/04 09:06:05;;;;;;;28.98;11.65;;;;;;;;;;5039424;28;20569;-66
2022/05/04 09:08:30;;;;;;;26.63;9.57;;;;;;;;;;5041088;28;20116;-66
2022/05/04 09:10:56;;;;;;;25.77;10.43;;;;;;;;;;5026438;28;20519;-66
2022/05/04 09:13:21;;;;;;;26.48;11.13;;;;;;;;;;5025298;28;20069;-67
2022/05/04 09:15:46;;;;;;;23.92;10.95;;;;;;;;;;5031247;28;20091;-66
2022/05/04 09:18:16;;;;;;;22.52;10.18;;;;;;;;;;5035406;28;20044;-66
2022/05/04 09:20:49;;;;;;;24.75;11.05;;;;;;;;;;5036638;28;20039;-67
2022/05/04 09:23:17;;;;;;;25.80;10.75;;;;;;;;;;5040535;28;20064;-67
2022/05/04 09:25:42;;;;;;;25.30;10.52;;;;;;;;;;5030856;28;20053;-73
2022/05/04 09:28:12;;;;;;;22.95;9.90;;;;;;;;;;5039208;28;20033;-73
2022/05/04 09:30:59;;;;;;;24.90;10.05;;;;;;;;;;5028050;28;20033;-73
2022/05/04 09:33:29;;;;;;;20.17;9.10;;;;;;;;;;5042299;28;20029;-73
2022/05/04 09:36:00;;;;;;;26.27;9.98;;;;;;;;;;5031397;28;20029;-74
2022/05/04 09:46:52;;;;;;;27.58;9.85;;;;;;;;;;5035331;28;20043;-73
2022/05/04 09:49:22;;;;;;;27.48;9.93;;;;;;;;;;5040072;28;20083;-72
2022/05/04 09:51:53;;;;;;;22.50;8.63;;;;;;;;;;5036596;28;20056;-72
2022/05/04 09:54:22;;;;;;;24.38;9.18;;;;;;;;;;5036562;28;20033;-71
2022/05/04 09:56:53;;;;;;;23.40;9.43;;;;;;;;;;5032530;28;20028;-71
2022/05/04 09:59:25;;;;;;;22.50;9.90;;;;;;;;;;5036150;28;20441;-71
2022/05/04 10:01:51;;;;;;;21.17;9.00;;;;;;;;;;5031687;28;20042;-72
2022/05/04 10:04:18;;;;;;;17.63;8.77;;;;;;;;;;5032522;28;20538;-71
2022/05/04 10:06:44;;;;;;;26.08;10.65;;;;;;;;;;5036738;28;20049;-71
2022/05/04 10:09:11;;;;;;;25.42;10.18;;;;;;;;;;5039647;28;20032;-71
2022/05/04 10:11:37;;;;;;;18.00;8.88;;;;;;;;;;5032144;28;20041;-70
2022/05/04 10:14:10;;;;;;;21.40;9.32;;;;;;;;;;5036119;28;20403;-69
2022/05/04 10:16:51;;;;;;;20.00;8.40;;;;;;;;;;5031505;28;20045;-70
2022/05/04 10:19:25;;;;;;;24.30;8.75;;;;;;;;;;5028237;28;20057;-69
2022/05/04 10:21:54;;;;;;;17.88;9.10;;;;;;;;;;5032223;28;20033;-69
2022/05/04 10:24:20;;;;;;;22.75;9.02;;;;;;;;;;5038682;28;20506;-69
2022/05/04 10:26:46;;;;;;;18.58;8.73;;;;;;;;;;5029136;28;20025;-69
2022/05/04 10:32:37;;;;;;;17.48;7.07;;;;;;;;;;5028889;28;20084;-70
2022/05/04 10:35:11;;;;;;;22.85;9.18;;;;;;;;;;5036311;28;20040;-70
2022/05/04 10:37:58;;;;;;;20.73;8.50;;;;;;;;;;5041954;28;20033;-70
2022/05/04 10:40:31;;;;;;;16.98;7.45;;;;;;;;;;5027340;28;20041;-72
2022/05/04 10:42:59;;;;;;;23.23;8.90;;;;;;;;;;5028907;28;20034;-71
2022/05/04 10:45:32;;;;;;;18.60;7.68;;;;;;;;;;5028464;28;20502;-72
2022/05/04 10:48:23;;;;;;;18.80;8.50;;;;;;;;;;5030147;28;20410;-72
2022/05/04 10:51:12;;;;;;;19.58;8.73;;;;;;;;;;5030931;28;20493;-72
2022/05/04 10:53:39;;;;;;;22.33;8.55;;;;;;;;;;5035190;28;20036;-72
2022/05/04 10:56:11;;;;;;;21.90;9.10;;;;;;;;;;5025025;28;20197;-71
2022/05/04 10:58:45;;;;;;;21.42;7.95;;;;;;;;;;5032664;28;20124;-72
2022/05/04 11:01:16;;;;;;;17.67;8.32;;;;;;;;;;5029741;28;20068;-72
2022/05/04 11:04:09;;;;;;;20.35;8.55;;;;;;;;;;5034422;28;20056;-72
2022/05/04 11:06:37;;;;;;;20.13;8.25;;;;;;;;;;5033850;28;20036;-72
2022/05/04 11:09:14;;;;;;;20.10;9.10;;;;;;;;;;5029908;28;20030;-72
2022/05/04 11:11:45;;;;;;;29.42;8.75;;;;;;;;;;5030239;28;20037;-72
2022/05/04 11:14:12;;;;;;;38.03;9.95;;;;;;;;;;5035823;28;20039;-70
2022/05/04 11:16:39;;;;;;;19.08;7.55;;;;;;;;;;5033768;28;20033;-71
2022/05/04 11:19:05;;;;;;;16.33;7.28;;;;;;;;;;5038163;28;20041;-70
2022/05/04 11:21:32;;;;;;;19.20;8.15;;;;;;;;;;5039476;28;20013;-70
2022/05/04 11:24:00;;;;;;;20.25;7.22;;;;;;;;;;5041272;28;20115;-70
2022/05/04 11:26:32;;;;;;;17.02;7.45;;;;;;;;;;5035019;28;20037;-70
2022/05/04 11:28:58;;;;;;;18.92;7.32;;;;;;;;;;5033073;28;20040;-75
2022/05/04 11:31:23;;;;;;;10.15;5.45;;;;;;;;;;5031850;28;20417;-69
2022/05/04 11:33:49;;;;;;;13.07;5.78;;;;;;;;;;5039182;28;20045;-70
2022/05/04 11:36:20;;;;;;;13.30;5.45;;;;;;;;;;5044862;28;20096;-69
2022/05/04 11:38:46;;;;;;;17.20;6.18;;;;;;;;;;5031381;28;20084;-72
2022/05/04 11:41:12;;;;;;;16.65;6.30;;;;;;;;;;5032343;28;20066;-70
2022/05/04 11:43:38;;;;;;;17.08;6.80;;;;;;;;;;5046811;28;20037;-71
2022/05/04 11:46:09;;;;;;;16.52;6.40;;;;;;;;;;5047155;28;20033;-70
2022/05/04 11:48:36;;;;;;;16.95;7.20;;;;;;;;;;5032179;28;20041;-69
2022/05/04 11:51:02;;;;;;;21.48;7.45;;;;;;;;;;5038713;28;20017;-73
2022/05/04 11:53:29;;;;;;;17.30;8.00;;;;;;;;;;5039327;28;20192;-72
2022/05/04 11:55:57;;;;;;;13.02;6.25;;;;;;;;;;5040108;28;20410;-71
2022/05/04 11:58:24;;;;;;;13.75;6.15;;;;;;;;;;5043867;28;20540;-70
2022/05/04 12:00:50;;;;;;;18.83;6.78;;;;;;;;;;5036255;28;20653;-68
2022/05/04 12:03:15;;;;;;;18.23;7.85;;;;;;;;;;5031495;28;20043;-69
2022/05/04 12:05:41;;;;;;;16.95;7.60;;;;;;;;;;5045167;28;20453;-68
2022/05/04 12:08:08;;;;;;;12.57;6.13;;;;;;;;;;5035919;28;20045;-69
2022/05/04 12:10:35;;;;;;;17.80;6.75;;;;;;;;;;5032694;28;20046;-68
2022/05/04 12:13:02;;;;;;;17.90;7.50;;;;;;;;;;5039503;28;20522;-70
2022/05/04 12:15:28;;;;;;;17.75;8.40;;;;;;;;;;5036168;28;20167;-70
2022/05/04 12:18:02;;;;;;;22.20;8.68;;;;;;;;;;5034440;28;20573;-71
2022/05/04 12:20:28;;;;;;;17.40;8.23;;;;;;;;;;5040253;28;20044;-69
2022/05/04 12:22:55;;;;;;;17.85;7.85;;;;;;;;;;5037633;28;20061;-67
2022/05/04 12:25:22;;;;;;;18.63;8.38;;;;;;;;;;5034960;28;20033;-73
2022/05/04 12:27:49;;;;;;;14.38;6.75;;;;;;;;;;5033040;28;20418;-75
2022/05/04 12:33:10;;;;;;;15.65;7.22;;;;;;;;;;5036392;28;20027;-72
2022/05/04 12:35:43;;;;;;;14.50;5.88;;;;;;;;;;5037501;28;20033;-73
2022/05/04 12:38:10;;;;;;;14.13;6.97;;;;;;;;;;5037809;28;20045;-71
2022/05/04 12:40:36;;;;;;;13.90;5.53;;;;;;;;;;5037989;28;20052;-70
2022/05/04 12:43:04;;;;;;;16.20;6.15;;;;;;;;;;5034384;28;20041;-71
2022/05/04 12:45:30;;;;;;;19.02;6.50;;;;;;;;;;5040335;28;20061;-72
2022/05/04 12:47:57;;;;;;;15.63;6.93;;;;;;;;;;5042387;28;20110;-70
2022/05/04 12:50:24;;;;;;;12.93;6.30;;;;;;;;;;5037874;28;20057;-71
2022/05/04 12:52:50;;;;;;;10.70;5.63;;;;;;;;;;5033817;28;20079;-71
2022/05/04 12:55:16;;;;;;;14.35;5.90;;;;;;;;;;5036151;28;20077;-69
2022/05/04 12:57:42;;;;;;;11.05;5.43;;;;;;;;;;5046070;28;20536;-68
2022/05/04 13:00:11;;;;;;;12.13;5.97;;;;;;;;;;5045544;28;20551;-72
2022/05/04 13:02:37;;;;;;;13.75;6.70;;;;;;;;;;5031781;28;20048;-71
2022/05/04 13:05:02;;;;;;;13.30;6.60;;;;;;;;;;5035249;28;20052;-69
2022/05/04 13:07:28;;;;;;;14.05;6.75;;;;;;;;;;5038065;28;20164;-68
2022/05/04 13:09:53;;;;;;;14.18;6.53;;;;;;;;;;5031706;28;20583;-68
2022/05/04 13:12:19;;;;;;;15.05;7.50;;;;;;;;;;5032220;28;20036;-68
2022/05/04 13:14:44;;;;;;;13.98;7.00;;;;;;;;;;5033503;28;20025;-66
2022/05/04 13:17:10;;;;;;;14.18;7.90;;;;;;;;;;5034000;28;20091;-70
2022/05/04 13:19:36;;;;;;;15.98;6.82;;;;;;;;;;5034688;28;20068;-68
2022/05/04 13:22:01;;;;;;;13.98;6.78;;;;;;;;;;5036309;28;20852;-69
2022/05/04 13:24:27;;;;;;;14.32;7.88;;;;;;;;;;5037385;28;20033;-67
2022/05/04 13:26:52;;;;;;;12.93;6.60;;;;;;;;;;5031456;28;20021;-67
2022/05/04 13:29:17;;;;;;;14.32;7.00;;;;;;;;;;5036367;28;20041;-68
2022/05/04 13:31:43;;;;;;;11.95;6.82;;;;;;;;;;5029996;28;20087;-68
2022/05/04 13:34:08;;;;;;;11.68;5.22;;;;;;;;;;5031320;28;20094;-68
2022/05/04 13:36:33;;;;;;;10.80;4.88;;;;;;;;;;5033030;28;20044;-68
2022/05/04 13:38:59;;;;;;;11.05;4.70;;;;;;;;;;5037681;28;20037;-68
2022/05/04 13:41:25;;;;;;;9.30;4.90;;;;;;;;;;5035059;28;20045;-69
2022/05/04 13:43:51;;;;;;;7.70;4.45;;;;;;;;;;5036551;28;20037;-68
2022/05/04 13:46:18;;;;;;;10.48;4.15;;;;;;;;;;5036158;28;20514;-71
2022/05/04 13:48:44;;;;;;;6.45;4.10;;;;;;;;;;5034234;28;20040;-70
2022/05/04 13:53:53;;;;;;;8.25;4.22;;;;;;;;;;5033049;28;20056;-67
2022/05/04 13:56:19;;;;;;;7.60;4.20;;;;;;;;;;5035286;28;20049;-69
2022/05/04 13:58:44;;;;;;;8.60;4.22;;;;;;;;;;5037258;28;20061;-70
2022/05/04 14:01:10;;;;;;;6.45;4.18;;;;;;;;;;5037167;28;20049;-68
2022/05/04 14:03:35;;;;;;;10.52;5.55;;;;;;;;;;5033653;28;20029;-70
2022/05/04 14:06:01;;;;;;;7.75;5.18;;;;;;;;;;5033210;28;20029;-70
2022/05/04 14:08:27;;;;;;;15.20;6.80;;;;;;;;;;5039185;28;20724;-70
2022/05/04 14:10:57;;;;;;;10.45;6.28;;;;;;;;;;5029640;28;20044;-69
2022/05/04 14:13:27;;;;;;;9.88;5.78;;;;;;;;;;5040676;28;20029;-71
2022/05/04 14:15:58;;;;;;;8.00;5.80;;;;;;;;;;5037411;28;20569;-69
2022/05/04 14:18:28;;;;;;;9.57;5.50;;;;;;;;;;5034246;28;20041;-70
2022/05/04 14:20:54;;;;;;;9.70;5.68;;;;;;;;;;5040656;28;20032;-68
2022/05/04 14:23:20;;;;;;;9.88;5.75;;;;;;;;;;5035229;28;20495;-68
2022/05/04 14:25:45;;;;;;;9.57;6.00;;;;;;;;;;5033381;28;20033;-70
2022/05/04 14:28:11;;;;;;;10.10;6.60;;;;;;;;;;5036316;28;20114;-70
2022/05/04 14:30:37;;;;;;;10.93;5.45;;;;;;;;;;5030251;28;20568;-69
2022/05/04 14:33:03;;;;;;;12.85;6.82;;;;;;;;;;5035008;28;20025;-71
2022/05/04 14:35:28;;;;;;;8.65;5.78;;;;;;;;;;5037008;28;20069;-69
2022/05/04 14:37:54;;;;;;;12.60;6.55;;;;;;;;;;5029389;28;20553;-70
2022/05/04 14:40:20;;;;;;;15.50;7.60;;;;;;;;;;5033989;28;20037;-68
2022/05/04 14:42:47;;;;;;;13.88;7.35;;;;;;;;;;5034704;28;20065;-67
2022/05/04 14:45:13;;;;;;;14.52;7.47;;;;;;;;;;5036415;28;20488;-68
2022/05/04 14:47:38;;;;;;;14.90;6.70;;;;;;;;;;5040420;28;20025;-68
2022/05/04 14:50:04;;;;;;;10.85;6.68;;;;;;;;;;5038404;28;20041;-70
2022/05/04 14:52:29;;;;;;;13.73;7.75;;;;;;;;;;5032520;28;20459;-69
2022/05/04 14:54:54;;;;;;;17.10;8.77;;;;;;;;;;5031689;28;20033;-70
2022/05/04 14:57:20;;;;;;;12.75;7.72;;;;;;;;;;5031804;28;20041;-70
2022/05/04 14:59:45;;;;;;;14.55;7.78;;;;;;;;;;5038799;28;20075;-68
2022/05/04 15:02:11;;;;;;;16.27;8.38;;;;;;;;;;5037263;28;20041;-71